createdAt,value
2022-11-04T00:00:52.023Z,6.91
2022-11-04T00:01:56.224Z,6.90
2022-11-04T00:03:00.799Z,6.87
2022-11-04T00:04:06.094Z,6.86
2022-11-04T00:05:09.274Z,6.85
2022-11-04T00:06:14.754Z,6.84
2022-11-04T00:07:38.693Z,6.85
2022-11-04T00:08:44.003Z,6.84
2022-11-04T00:09:48.150Z,6.82
2022-11-04T00:11:14.639Z,6.78
2022-11-04T00:12:27.097Z,6.73
2022-11-04T00:13:30.330Z,6.69
2022-11-04T00:14:34.837Z,6.64
2022-11-04T00:15:55.909Z,6.61
2022-11-04T00:17:16.885Z,6.58
2022-11-04T00:18:21.335Z,6.55
2022-11-04T00:19:26.605Z,6.52
2022-11-04T00:20:47.716Z,6.50
2022-11-04T00:22:08.894Z,6.47
2022-11-04T00:23:30.573Z,6.44
2022-11-04T00:24:52.740Z,6.39
2022-11-04T00:26:16.545Z,6.35
2022-11-04T00:27:39.474Z,6.28
2022-11-04T00:28:44.334Z,6.22
2022-11-04T00:29:49.484Z,6.19
2022-11-04T00:30:59.536Z,6.17
2022-11-04T00:32:21.015Z,6.15
2022-11-04T00:33:29.867Z,6.14
2022-11-04T00:34:33.956Z,6.12
2022-11-04T00:35:37.725Z,6.10
2022-11-04T00:36:42.393Z,6.08
2022-11-04T00:37:46.375Z,6.06
2022-11-04T00:38:50.105Z,6.05
2022-11-04T00:39:56.192Z,6.02
2022-11-04T00:40:59.944Z,5.99
2022-11-04T00:42:03.534Z,5.97
2022-11-04T00:43:13.645Z,5.97
2022-11-04T00:44:18.814Z,5.94
2022-11-04T00:45:22.645Z,5.94
2022-11-04T00:46:25.893Z,5.93
2022-11-04T00:47:30.524Z,5.93
2022-11-04T00:48:33.104Z,5.91
2022-11-04T00:49:38.981Z,5.90
2022-11-04T00:50:43.134Z,5.89
2022-11-04T00:51:49.424Z,5.89
2022-11-04T00:52:52.084Z,5.90
2022-11-04T00:53:55.845Z,5.89
2022-11-04T00:55:02.096Z,5.88
2022-11-04T00:56:07.256Z,5.87
2022-11-04T00:57:11.275Z,5.86
2022-11-04T00:58:16.734Z,5.84
2022-11-04T00:59:20.524Z,5.84
2022-11-04T01:00:23.475Z,5.83
2022-11-04T01:01:27.627Z,5.83
2022-11-04T01:02:31.320Z,5.84
2022-11-04T01:03:35.098Z,5.85
2022-11-04T01:04:39.294Z,5.87
2022-11-04T01:05:46.775Z,5.88
2022-11-04T01:06:49.564Z,5.88
2022-11-04T01:07:53.389Z,5.89
2022-11-04T01:08:56.577Z,5.90
2022-11-04T01:10:02.478Z,5.89
2022-11-04T01:11:05.725Z,5.89
2022-11-04T01:12:10.233Z,5.89
2022-11-04T01:13:12.973Z,5.90
2022-11-04T01:14:18.631Z,5.90
2022-11-04T01:15:24.243Z,5.90
2022-11-04T01:17:36.981Z,5.88
2022-11-04T01:18:40.193Z,5.87
2022-11-04T01:19:46.664Z,5.83
2022-11-04T01:20:49.325Z,5.81
2022-11-04T01:21:54.753Z,5.80
2022-11-04T01:22:58.585Z,5.78
2022-11-04T01:24:02.942Z,5.75
2022-11-04T01:25:09.534Z,5.72
2022-11-04T01:26:15.287Z,5.70
2022-11-04T01:27:20.234Z,5.68
2022-11-04T01:28:23.033Z,5.67
2022-11-04T01:29:29.085Z,5.65
2022-11-04T01:30:33.525Z,5.65
2022-11-04T01:31:37.376Z,5.64
2022-11-04T01:32:40.100Z,5.65
2022-11-04T01:33:44.753Z,5.66
2022-11-04T01:34:48.953Z,5.68
2022-11-04T01:35:54.832Z,5.70
2022-11-04T01:36:57.555Z,5.71
2022-11-04T01:38:03.836Z,5.73
2022-11-04T01:39:06.610Z,5.74
2022-11-04T01:40:11.334Z,5.77
2022-11-04T01:41:18.518Z,5.78
2022-11-04T01:42:23.372Z,5.79
2022-11-04T01:43:44.144Z,5.79
2022-11-04T01:44:52.115Z,5.77
2022-11-04T01:45:59.883Z,5.76
2022-11-04T01:47:05.411Z,5.75
2022-11-04T01:48:14.945Z,5.75
2022-11-04T01:49:28.403Z,5.74
2022-11-04T01:50:34.338Z,5.71
2022-11-04T01:51:40.224Z,5.70
2022-11-04T01:52:49.004Z,5.69
2022-11-04T01:53:54.096Z,5.69
2022-11-04T01:54:59.702Z,5.67
2022-11-04T01:56:12.170Z,5.64
2022-11-04T01:57:17.846Z,5.60
2022-11-04T01:58:23.932Z,5.58
2022-11-04T01:59:28.355Z,5.58
2022-11-04T02:00:33.166Z,5.57
2022-11-04T02:01:36.386Z,5.58
2022-11-04T02:02:45.995Z,5.59
2022-11-04T02:03:52.864Z,5.60
2022-11-04T02:04:56.588Z,5.61
2022-11-04T02:06:03.146Z,5.63
2022-11-04T02:07:08.984Z,5.63
2022-11-04T02:08:12.596Z,5.65
2022-11-04T02:09:16.497Z,5.66
2022-11-04T02:10:21.635Z,5.69
2022-11-04T02:11:44.743Z,5.69
2022-11-04T02:12:52.895Z,5.71
2022-11-04T02:13:55.636Z,5.71
2022-11-04T02:14:58.874Z,5.72
2022-11-04T02:16:09.213Z,5.73
2022-11-04T02:17:30.355Z,5.74
2022-11-04T02:18:50.081Z,5.77
2022-11-04T02:20:17.665Z,5.78
2022-11-04T02:21:38.494Z,5.78
2022-11-04T02:22:59.239Z,5.80
2022-11-04T02:24:31.962Z,5.84
2022-11-04T02:25:53.033Z,5.91
2022-11-04T02:27:20.484Z,5.97
2022-11-04T02:28:43.331Z,6.02
2022-11-04T02:30:08.487Z,6.07
2022-11-04T02:31:15.411Z,6.12
2022-11-04T02:32:25.964Z,6.17
2022-11-04T02:33:32.932Z,6.23
2022-11-04T02:34:43.853Z,6.30
2022-11-04T02:35:55.014Z,6.36
2022-11-04T02:37:06.635Z,6.40
2022-11-04T02:38:16.455Z,6.45
2022-11-04T02:39:25.227Z,6.49
2022-11-04T02:40:33.853Z,6.53
2022-11-04T02:41:42.075Z,6.59
2022-11-04T02:42:50.493Z,6.63
2022-11-04T02:44:00.650Z,6.71
2022-11-04T02:45:13.305Z,6.80
2022-11-04T02:46:20.959Z,6.91
2022-11-04T02:47:27.044Z,7.04
2022-11-04T02:48:35.265Z,7.17
2022-11-04T02:49:41.362Z,7.28
2022-11-04T02:50:53.443Z,7.40
2022-11-04T02:52:00.683Z,7.51
2022-11-04T02:53:09.796Z,7.59
2022-11-04T02:54:16.181Z,7.70
2022-11-04T02:55:23.960Z,7.79
2022-11-04T02:56:28.149Z,7.89
2022-11-04T02:57:34.543Z,7.97
2022-11-04T02:58:42.902Z,8.08
2022-11-04T02:59:48.803Z,8.14
2022-11-04T03:00:54.694Z,8.21
2022-11-04T03:02:00.677Z,8.30
2022-11-04T03:03:08.318Z,8.38
2022-11-04T03:04:18.864Z,8.41
2022-11-04T03:05:23.843Z,8.45
2022-11-04T03:06:28.723Z,8.48
2022-11-04T03:07:34.335Z,8.51
2022-11-04T03:08:43.604Z,8.57
2022-11-04T03:09:50.518Z,8.59
2022-11-04T03:10:58.713Z,8.64
2022-11-04T03:12:03.500Z,8.69
2022-11-04T03:13:12.853Z,8.73
2022-11-04T03:14:18.595Z,8.75
2022-11-04T03:15:27.724Z,8.78
2022-11-04T03:16:37.374Z,8.79
2022-11-04T03:17:42.434Z,8.79
2022-11-04T03:18:56.412Z,8.80
2022-11-04T03:20:00.252Z,8.81
2022-11-04T03:21:06.724Z,8.82
2022-11-04T03:22:11.964Z,8.82
2022-11-04T03:23:16.828Z,8.82
2022-11-04T03:24:22.522Z,8.81
2022-11-04T03:25:29.493Z,8.80
2022-11-04T03:26:37.993Z,8.80
2022-11-04T03:27:47.935Z,8.82
2022-11-04T03:28:56.586Z,8.83
2022-11-04T03:30:01.738Z,8.83
2022-11-04T03:31:06.875Z,8.84
2022-11-04T03:32:19.036Z,8.83
2022-11-04T03:33:27.773Z,8.82
2022-11-04T03:34:32.102Z,8.82
2022-11-04T03:35:34.833Z,8.81
2022-11-04T03:36:38.582Z,8.79
2022-11-04T03:37:41.253Z,8.76
2022-11-04T03:38:45.665Z,8.71
2022-11-04T03:39:48.340Z,8.69
2022-11-04T03:40:52.278Z,8.66
2022-11-04T03:41:57.164Z,8.63
2022-11-04T03:43:02.414Z,8.59
2022-11-04T03:44:05.405Z,8.54
2022-11-04T03:45:10.585Z,8.49
2022-11-04T03:46:13.458Z,8.44
2022-11-04T03:47:19.824Z,8.39
2022-11-04T03:48:23.085Z,8.35
2022-11-04T03:49:27.473Z,8.30
2022-11-04T03:50:31.233Z,8.26
2022-11-04T03:51:35.003Z,8.20
2022-11-04T03:52:37.736Z,8.13
2022-11-04T03:53:42.703Z,8.04
2022-11-04T03:54:45.726Z,7.97
2022-11-04T03:56:00.294Z,7.90
2022-11-04T03:57:37.046Z,7.78
2022-11-04T03:58:46.033Z,7.67
2022-11-04T04:00:11.685Z,7.57
2022-11-04T04:01:26.440Z,7.48
2022-11-04T04:02:41.335Z,7.37
2022-11-04T04:03:49.075Z,7.28
2022-11-04T04:04:57.904Z,7.23
2022-11-04T04:06:05.652Z,7.16
2022-11-04T04:07:14.285Z,7.09
2022-11-04T04:08:23.356Z,7.02
2022-11-04T04:09:29.503Z,6.94
2022-11-04T04:10:40.877Z,6.88
2022-11-04T04:11:47.556Z,6.84
2022-11-04T04:12:50.313Z,6.79
2022-11-04T04:13:58.718Z,6.74
2022-11-04T04:15:06.144Z,6.70
2022-11-04T04:16:11.903Z,6.65
2022-11-04T04:17:18.224Z,6.62
2022-11-04T04:18:28.858Z,6.61
2022-11-04T04:19:32.696Z,6.61
2022-11-04T04:20:38.183Z,6.61
2022-11-04T04:21:45.531Z,6.61
2022-11-04T04:22:51.532Z,6.60
2022-11-04T04:24:14.362Z,6.59
2022-11-04T04:25:36.035Z,6.53
2022-11-04T04:26:58.974Z,6.48
2022-11-04T04:28:03.531Z,6.46
2022-11-04T04:29:07.064Z,6.45
2022-11-04T04:30:12.922Z,6.42
2022-11-04T04:31:37.510Z,6.40
2022-11-04T04:32:43.285Z,6.37
2022-11-04T04:33:47.373Z,6.35
2022-11-04T04:34:51.193Z,6.33
2022-11-04T04:35:56.115Z,6.30
2022-11-04T04:37:03.668Z,6.28
2022-11-04T04:38:22.118Z,6.25
2022-11-04T04:39:46.393Z,6.22
2022-11-04T04:41:11.013Z,6.20
2022-11-04T04:42:32.089Z,6.19
2022-11-04T04:43:53.252Z,6.16
2022-11-04T04:45:06.552Z,6.13
2022-11-04T04:46:09.402Z,6.12
2022-11-04T04:47:20.230Z,6.10
2022-11-04T04:48:24.125Z,6.07
2022-11-04T04:49:35.380Z,6.03
2022-11-04T04:50:42.634Z,5.98
2022-11-04T04:51:46.940Z,5.97
2022-11-04T04:52:52.035Z,5.96
2022-11-04T04:53:56.464Z,5.95
2022-11-04T04:55:00.323Z,5.95
2022-11-04T04:56:03.074Z,5.93
2022-11-04T04:57:06.773Z,5.91
2022-11-04T04:58:10.737Z,5.88
2022-11-04T04:59:13.464Z,5.86
2022-11-04T05:00:19.008Z,5.82
2022-11-04T05:01:21.973Z,5.78
2022-11-04T05:02:25.908Z,5.74
2022-11-04T05:03:29.643Z,5.70
2022-11-04T05:04:33.704Z,5.68
2022-11-04T05:05:37.403Z,5.65
2022-11-04T05:06:40.117Z,5.65
2022-11-04T05:07:44.204Z,5.65
2022-11-04T05:08:46.932Z,5.65
2022-11-04T05:09:50.880Z,5.64
2022-11-04T05:10:53.647Z,5.63
2022-11-04T05:11:57.343Z,5.62
2022-11-04T05:13:18.593Z,5.61
2022-11-04T05:14:22.402Z,5.56
2022-11-04T05:15:25.186Z,5.53
2022-11-04T05:16:28.912Z,5.49
2022-11-04T05:17:31.634Z,5.46
2022-11-04T05:18:35.572Z,5.44
2022-11-04T05:19:40.185Z,5.39
2022-11-04T05:20:43.864Z,5.36
2022-11-04T05:21:47.572Z,5.32
2022-11-04T05:22:50.353Z,5.29
2022-11-04T05:23:54.135Z,5.26
2022-11-04T05:24:56.853Z,5.22
2022-11-04T05:26:00.653Z,5.17
2022-11-04T05:27:03.396Z,5.14
2022-11-04T05:28:07.579Z,5.10
2022-11-04T05:29:10.755Z,5.06
2022-11-04T05:30:14.739Z,5.04
2022-11-04T05:31:18.694Z,5.03
2022-11-04T05:32:21.435Z,5.00
2022-11-04T05:33:25.193Z,4.99
2022-11-04T05:34:27.884Z,4.98
2022-11-04T05:35:33.103Z,4.97
2022-11-04T05:36:35.885Z,4.96
2022-11-04T05:37:39.715Z,4.94
2022-11-04T05:38:43.335Z,4.92
2022-11-04T05:39:47.083Z,4.92
2022-11-04T05:40:49.727Z,4.91
2022-11-04T05:41:53.594Z,4.90
2022-11-04T05:42:58.702Z,4.89
2022-11-04T05:44:03.386Z,4.89
2022-11-04T05:45:06.935Z,4.88
2022-11-04T05:46:10.667Z,4.86
2022-11-04T05:47:13.333Z,4.87
2022-11-04T05:48:17.056Z,4.86
2022-11-04T05:49:19.844Z,4.86
2022-11-04T05:50:23.562Z,4.87
2022-11-04T05:51:29.731Z,4.89
2022-11-04T05:52:32.428Z,4.91
2022-11-04T05:53:36.162Z,5.02
2022-11-04T05:54:39.077Z,5.11
2022-11-04T05:55:42.815Z,5.19
2022-11-04T05:56:45.484Z,5.28
2022-11-04T05:57:49.142Z,5.34
2022-11-04T05:58:51.885Z,5.40
2022-11-04T05:59:55.672Z,5.46
2022-11-04T06:01:12.525Z,5.56
2022-11-04T06:02:16.457Z,5.62
2022-11-04T06:03:19.286Z,5.66
2022-11-04T06:04:23.112Z,5.69
2022-11-04T06:05:26.203Z,5.73
2022-11-04T06:06:34.092Z,5.80
2022-11-04T06:07:36.885Z,5.83
2022-11-04T06:08:44.972Z,5.85
2022-11-04T06:09:48.964Z,5.87
2022-11-04T06:10:51.773Z,5.92
2022-11-04T06:11:55.645Z,5.95
2022-11-04T06:12:58.424Z,6.03
2022-11-04T06:14:02.353Z,6.10
2022-11-04T06:15:06.225Z,6.20
2022-11-04T06:16:09.955Z,6.31
2022-11-04T06:17:14.889Z,6.41
2022-11-04T06:18:18.705Z,6.52
2022-11-04T06:19:21.373Z,6.63
2022-11-04T06:20:25.155Z,6.71
2022-11-04T06:21:31.495Z,6.84
2022-11-04T06:22:34.236Z,6.97
2022-11-04T06:23:38.226Z,7.13
2022-11-04T06:24:41.560Z,7.27
2022-11-04T06:25:45.313Z,7.42
2022-11-04T06:26:48.003Z,7.56
2022-11-04T06:27:51.713Z,7.69
2022-11-04T06:28:54.613Z,7.82
2022-11-04T06:29:58.364Z,7.94
2022-11-04T06:31:03.026Z,8.08
2022-11-04T06:32:07.193Z,8.20
2022-11-04T06:33:09.847Z,8.36
2022-11-04T06:34:13.513Z,8.48
2022-11-04T06:35:16.284Z,8.59
2022-11-04T06:36:20.039Z,8.70
2022-11-04T06:37:25.181Z,8.80
2022-11-04T06:38:30.493Z,8.89
2022-11-04T06:39:34.186Z,8.96
2022-11-04T06:40:36.863Z,9.05
2022-11-04T06:41:42.922Z,9.14
2022-11-04T06:42:45.845Z,9.23
2022-11-04T06:43:49.557Z,9.31
2022-11-04T06:44:53.367Z,9.38
2022-11-04T06:45:56.334Z,9.44
2022-11-04T06:46:59.995Z,9.47
2022-11-04T06:48:02.724Z,9.52
2022-11-04T06:49:07.134Z,9.54
2022-11-04T06:50:11.207Z,9.59
2022-11-04T06:51:14.892Z,9.60
2022-11-04T06:52:18.752Z,9.62
2022-11-04T06:53:23.079Z,9.62
2022-11-04T06:54:26.794Z,9.63
2022-11-04T06:55:29.495Z,9.64
2022-11-04T06:56:33.233Z,9.67
2022-11-04T06:57:35.893Z,9.68
2022-11-04T06:58:39.873Z,9.70
2022-11-04T06:59:43.545Z,9.72
2022-11-04T07:00:51.838Z,9.76
2022-11-04T07:01:55.743Z,9.78
2022-11-04T07:02:58.875Z,9.82
2022-11-04T07:04:03.124Z,9.88
2022-11-04T07:05:07.026Z,9.95
2022-11-04T07:06:11.770Z,9.99
2022-11-04T07:07:14.754Z,10.05
2022-11-04T07:08:18.944Z,10.10
2022-11-04T07:09:24.176Z,10.15
2022-11-04T07:10:26.883Z,10.17
2022-11-04T07:11:32.075Z,10.20
2022-11-04T07:12:34.743Z,10.25
2022-11-04T07:13:38.515Z,10.27
2022-11-04T07:14:41.186Z,10.29
2022-11-04T07:15:45.025Z,10.30
2022-11-04T07:16:51.400Z,10.31
2022-11-04T07:17:54.151Z,10.31
2022-11-04T07:18:57.966Z,10.29
2022-11-04T07:20:00.677Z,10.26
2022-11-04T07:21:09.748Z,10.24
2022-11-04T07:22:14.023Z,10.21
2022-11-04T07:23:16.733Z,10.20
2022-11-04T07:24:20.614Z,10.16
2022-11-04T07:25:24.748Z,10.14
2022-11-04T07:26:28.515Z,10.11
2022-11-04T07:27:31.353Z,10.10
2022-11-04T07:28:35.331Z,10.08
2022-11-04T07:29:38.025Z,10.06
2022-11-04T07:30:41.783Z,10.05
2022-11-04T07:31:44.534Z,10.04
2022-11-04T07:32:48.325Z,10.04
2022-11-04T07:33:52.141Z,10.03
2022-11-04T07:34:54.884Z,10.01
2022-11-04T07:35:58.708Z,10.00
2022-11-04T07:37:01.487Z,9.99
2022-11-04T07:38:05.359Z,10.00
2022-11-04T07:39:09.214Z,10.01
2022-11-04T07:40:12.622Z,10.03
2022-11-04T07:41:18.338Z,10.07
2022-11-04T07:42:21.250Z,10.11
2022-11-04T07:43:30.823Z,10.17
2022-11-04T07:44:35.256Z,10.23
2022-11-04T07:45:39.227Z,10.30
2022-11-04T07:46:43.024Z,10.37
2022-11-04T07:47:45.955Z,10.43
2022-11-04T07:48:49.881Z,10.53
2022-11-04T07:49:52.687Z,10.60
2022-11-04T07:50:57.963Z,10.67
2022-11-04T07:52:00.624Z,10.74
2022-11-04T07:53:04.539Z,10.81
2022-11-04T07:54:08.463Z,10.87
2022-11-04T07:55:11.315Z,10.95
2022-11-04T07:56:16.118Z,11.03
2022-11-04T07:57:20.323Z,11.11
2022-11-04T07:58:24.615Z,11.18
2022-11-04T07:59:28.923Z,11.26
2022-11-04T08:00:31.953Z,11.34
2022-11-04T08:01:36.246Z,11.40
2022-11-04T08:02:40.496Z,11.47
2022-11-04T08:03:43.629Z,11.53
2022-11-04T08:04:47.763Z,11.60
2022-11-04T08:05:55.982Z,11.65
2022-11-04T08:06:59.941Z,11.70
2022-11-04T08:08:02.804Z,11.76
2022-11-04T08:09:06.941Z,11.82
2022-11-04T08:10:10.686Z,11.86
2022-11-04T08:11:17.914Z,11.92
2022-11-04T08:12:24.584Z,11.97
2022-11-04T08:13:28.435Z,12.01
2022-11-04T08:14:32.405Z,12.04
2022-11-04T08:15:37.803Z,12.07
2022-11-04T08:16:41.584Z,12.11
2022-11-04T08:17:45.355Z,12.15
2022-11-04T08:18:50.527Z,12.21
2022-11-04T08:19:53.411Z,12.30
2022-11-04T08:20:57.065Z,12.37
2022-11-04T08:22:00.914Z,12.47
2022-11-04T08:23:04.249Z,12.58
2022-11-04T08:24:08.554Z,12.72
2022-11-04T08:25:13.875Z,12.85
2022-11-04T08:26:18.306Z,12.98
2022-11-04T08:27:23.985Z,13.07
2022-11-04T08:28:27.146Z,13.16
2022-11-04T08:29:30.863Z,13.27
2022-11-04T08:30:33.986Z,13.40
2022-11-04T08:31:38.018Z,13.52
2022-11-04T08:32:41.977Z,13.62
2022-11-04T08:33:46.456Z,13.69
2022-11-04T08:34:50.510Z,13.76
2022-11-04T08:35:53.766Z,13.82
2022-11-04T08:36:59.046Z,13.92
2022-11-04T08:38:01.795Z,14.00
2022-11-04T08:39:10.229Z,14.06
2022-11-04T08:40:14.926Z,14.12
2022-11-04T08:41:20.036Z,14.18
2022-11-04T08:42:26.436Z,14.23
2022-11-04T08:43:29.134Z,14.30
2022-11-04T08:44:34.213Z,14.37
2022-11-04T08:45:40.403Z,14.45
2022-11-04T08:46:45.297Z,14.51
2022-11-04T08:47:48.533Z,14.57
2022-11-04T08:48:52.353Z,14.63
2022-11-04T08:49:56.123Z,14.67
2022-11-04T08:50:59.583Z,14.71
2022-11-04T08:52:03.324Z,14.78
2022-11-04T08:53:06.509Z,14.85
2022-11-04T08:54:10.617Z,14.94
2022-11-04T08:55:13.323Z,15.01
2022-11-04T08:56:19.506Z,15.08
2022-11-04T08:57:24.626Z,15.17
2022-11-04T08:58:27.306Z,15.17
2022-11-04T08:59:31.000Z,15.19
2022-11-04T09:00:33.703Z,15.19
2022-11-04T09:01:38.313Z,15.19
2022-11-04T09:02:42.195Z,15.18
2022-11-04T09:03:45.042Z,15.19
2022-11-04T09:04:48.853Z,15.19
2022-11-04T09:05:52.683Z,15.18
2022-11-04T09:06:57.595Z,15.18
2022-11-04T09:08:01.354Z,15.17
2022-11-04T09:09:05.774Z,15.18
2022-11-04T09:10:09.265Z,15.17
2022-11-04T09:11:14.554Z,15.14
2022-11-04T09:12:17.163Z,15.12
2022-11-04T09:13:22.842Z,15.11
2022-11-04T09:14:26.742Z,15.11
2022-11-04T09:15:29.445Z,15.09
2022-11-04T09:16:34.276Z,15.11
2022-11-04T09:17:39.004Z,15.14
2022-11-04T09:18:41.736Z,15.17
2022-11-04T09:19:45.505Z,15.20
2022-11-04T09:20:48.226Z,15.25
2022-11-04T09:21:51.999Z,15.29
2022-11-04T09:22:56.226Z,15.34
2022-11-04T09:23:59.965Z,15.41
2022-11-04T09:25:02.814Z,15.48
2022-11-04T09:26:09.012Z,15.54
2022-11-04T09:27:12.713Z,15.58
2022-11-04T09:28:15.431Z,15.62
2022-11-04T09:29:20.551Z,15.67
2022-11-04T09:30:23.384Z,15.72
2022-11-04T09:31:29.043Z,15.75
2022-11-04T09:32:32.788Z,15.74
2022-11-04T09:33:35.483Z,15.76
2022-11-04T09:34:39.191Z,15.77
2022-11-04T09:35:41.985Z,15.81
2022-11-04T09:36:47.211Z,15.90
2022-11-04T09:37:50.890Z,15.96
2022-11-04T09:38:54.754Z,16.04
2022-11-04T09:39:58.395Z,16.12
2022-11-04T09:41:01.539Z,16.20
2022-11-04T09:42:18.123Z,16.25
2022-11-04T09:43:34.673Z,16.24
2022-11-04T09:45:15.373Z,16.25
2022-11-04T09:46:14.043Z,16.24
2022-11-04T09:47:21.636Z,16.25
2022-11-04T09:48:28.250Z,16.26
2022-11-04T09:49:36.973Z,16.27
2022-11-04T09:50:48.868Z,16.27
2022-11-04T09:51:55.185Z,16.26
2022-11-04T09:53:03.336Z,16.26
2022-11-04T09:54:15.197Z,16.29
2022-11-04T09:55:23.032Z,16.30
2022-11-04T09:56:29.165Z,16.30
2022-11-04T09:57:33.341Z,16.31
2022-11-04T09:58:39.606Z,16.32
2022-11-04T09:59:44.752Z,16.35
2022-11-04T10:00:52.917Z,16.35
2022-11-04T10:02:20.833Z,16.37
2022-11-04T10:03:43.576Z,16.40
2022-11-04T10:04:54.454Z,16.42
2022-11-04T10:06:10.685Z,16.48
2022-11-04T10:07:24.305Z,16.52
2022-11-04T10:08:42.504Z,16.56
2022-11-04T10:09:54.789Z,16.55
2022-11-04T10:11:05.454Z,16.60
2022-11-04T10:12:20.883Z,16.66
2022-11-04T10:13:29.835Z,16.69
2022-11-04T10:15:06.144Z,16.73
2022-11-04T10:16:20.752Z,16.76
2022-11-04T10:17:41.933Z,16.76
2022-11-04T10:18:56.445Z,16.76
2022-11-04T10:20:12.847Z,16.73
2022-11-04T10:21:23.823Z,16.66
2022-11-04T10:22:31.807Z,16.62
2022-11-04T10:23:39.545Z,16.56
2022-11-04T10:24:44.566Z,16.51
2022-11-04T10:25:49.355Z,16.46
2022-11-04T10:27:00.460Z,16.44
2022-11-04T10:28:05.176Z,16.41
2022-11-04T10:29:15.106Z,16.40
2022-11-04T10:30:21.801Z,16.38
2022-11-04T10:31:26.215Z,16.36
2022-11-04T10:32:32.986Z,16.34
2022-11-04T10:33:39.190Z,16.33
2022-11-04T10:34:48.086Z,16.34
2022-11-04T10:35:53.868Z,16.34
2022-11-04T10:36:59.156Z,16.35
2022-11-04T10:38:19.554Z,16.36
2022-11-04T10:39:29.145Z,16.36
2022-11-04T10:40:36.642Z,16.36
2022-11-04T10:41:41.409Z,16.36
2022-11-04T10:42:45.365Z,16.36
2022-11-04T10:43:48.373Z,16.37
2022-11-04T10:44:53.424Z,16.37
2022-11-04T10:46:06.477Z,16.41
2022-11-04T10:47:18.995Z,16.44
2022-11-04T10:48:26.266Z,16.45
2022-11-04T10:50:00.452Z,16.48
2022-11-04T10:51:08.925Z,16.46
2022-11-04T10:52:12.004Z,16.44
2022-11-04T10:53:17.608Z,16.42
2022-11-04T10:54:20.433Z,16.42
2022-11-04T10:55:32.217Z,16.44
2022-11-04T10:56:39.449Z,16.45
2022-11-04T10:57:43.746Z,16.45
2022-11-04T10:58:48.369Z,16.44
2022-11-04T10:59:55.066Z,16.45
2022-11-04T11:00:59.573Z,16.44
2022-11-04T11:02:05.046Z,16.43
2022-11-04T11:03:25.893Z,16.42
2022-11-04T11:04:31.725Z,16.37
2022-11-04T11:05:34.431Z,16.36
2022-11-04T11:06:39.018Z,16.35
2022-11-04T11:07:41.716Z,16.34
2022-11-04T11:08:45.997Z,16.32
2022-11-04T11:09:54.290Z,16.32
2022-11-04T11:10:58.716Z,16.30
2022-11-04T11:12:09.863Z,16.28
2022-11-04T11:13:26.146Z,16.23
2022-11-04T11:14:35.812Z,16.19
2022-11-04T11:15:42.456Z,16.17
2022-11-04T11:16:46.655Z,16.16
2022-11-04T11:17:50.512Z,16.15
2022-11-04T11:19:17.698Z,16.14
2022-11-04T11:20:23.192Z,16.11
2022-11-04T11:21:26.307Z,16.10
2022-11-04T11:22:33.083Z,16.10
2022-11-04T11:23:42.677Z,16.10
2022-11-04T11:24:46.444Z,16.13
2022-11-04T11:25:50.843Z,16.13
2022-11-04T11:26:56.033Z,16.15
2022-11-04T11:28:00.069Z,16.17
2022-11-04T11:29:07.457Z,16.19
2022-11-04T11:30:20.813Z,16.22
2022-11-04T11:31:26.924Z,16.20
2022-11-04T11:32:32.986Z,16.21
2022-11-04T11:33:38.543Z,16.21
2022-11-04T11:34:45.771Z,16.21
2022-11-04T11:35:52.081Z,16.20
2022-11-04T11:36:57.014Z,16.20
2022-11-04T11:38:04.253Z,16.20
2022-11-04T11:39:17.057Z,16.18
2022-11-04T11:40:29.536Z,16.16
2022-11-04T11:41:35.201Z,16.14
2022-11-04T11:42:42.985Z,16.14
2022-11-04T11:43:52.496Z,16.15
2022-11-04T11:44:56.924Z,16.17
2022-11-04T11:46:01.226Z,16.20
2022-11-04T11:47:06.904Z,16.24
2022-11-04T11:48:29.807Z,16.27
2022-11-04T11:49:36.035Z,16.31
2022-11-04T11:50:38.875Z,16.35
2022-11-04T11:51:43.276Z,16.39
2022-11-04T11:52:46.937Z,16.44
2022-11-04T11:54:04.500Z,16.50
2022-11-04T11:55:13.746Z,16.53
2022-11-04T11:56:25.103Z,16.58
2022-11-04T11:57:37.854Z,16.60
2022-11-04T12:01:39.139Z,16.71
2022-11-04T12:02:46.949Z,16.75
2022-11-04T12:10:09.963Z,16.91
2022-11-04T12:11:21.521Z,16.97
2022-11-04T12:12:35.776Z,17.04
2022-11-04T12:13:44.438Z,17.10
2022-11-04T12:15:00.870Z,17.13
2022-11-04T12:16:22.278Z,17.18
2022-11-04T12:17:41.916Z,17.22
2022-11-04T12:19:03.662Z,17.25
2022-11-04T12:20:29.024Z,17.23
2022-11-04T12:21:42.527Z,17.22
2022-11-04T12:22:51.312Z,17.23
2022-11-04T12:23:57.023Z,17.23
2022-11-04T12:25:06.713Z,17.22
2022-11-04T12:26:18.305Z,17.22
2022-11-04T12:27:29.244Z,17.23
2022-11-04T12:28:41.104Z,17.22
2022-11-04T12:29:56.738Z,17.22
2022-11-04T12:31:10.423Z,17.22
2022-11-04T12:32:24.202Z,17.23
2022-11-04T12:33:34.768Z,17.22
2022-11-04T12:34:46.796Z,17.20
2022-11-04T12:36:08.704Z,17.17
2022-11-04T12:37:18.127Z,17.14
2022-11-04T12:38:40.469Z,17.07
2022-11-04T12:39:54.958Z,17.00
2022-11-04T12:41:32.213Z,16.92
2022-11-04T12:42:33.179Z,16.86
2022-11-04T12:43:41.543Z,16.82
2022-11-04T12:44:49.657Z,16.80
2022-11-04T12:46:02.264Z,16.76
2022-11-04T12:47:23.873Z,16.72
2022-11-04T12:48:57.270Z,16.65
2022-11-04T12:50:16.007Z,16.58
2022-11-04T12:51:26.807Z,16.51
2022-11-04T12:52:45.143Z,16.49
2022-11-04T12:53:56.975Z,16.42
2022-11-04T12:55:06.853Z,16.37
2022-11-04T12:56:12.237Z,16.34
2022-11-04T12:57:21.833Z,16.31
2022-11-04T12:58:36.823Z,16.28
2022-11-04T12:59:55.816Z,16.25
2022-11-04T13:01:04.053Z,16.24
2022-11-04T13:02:17.094Z,16.24
2022-11-04T13:03:25.572Z,16.22
2022-11-04T13:04:32.754Z,16.19
2022-11-04T13:05:43.133Z,16.19
2022-11-04T13:06:49.477Z,16.18
2022-11-04T13:07:56.754Z,16.18
2022-11-04T13:09:03.769Z,16.17
2022-11-04T13:10:12.709Z,16.17
2022-11-04T13:11:26.214Z,16.15
2022-11-04T13:12:33.425Z,16.14
2022-11-04T13:13:39.468Z,16.14
2022-11-04T13:14:46.515Z,16.14
2022-11-04T13:15:52.761Z,16.14
2022-11-04T13:16:58.086Z,16.13
2022-11-04T13:18:07.286Z,16.15
2022-11-04T13:19:28.826Z,16.15
2022-11-04T13:20:36.616Z,16.14
2022-11-04T13:21:41.925Z,16.13
2022-11-04T13:22:48.184Z,16.13
2022-11-04T13:23:54.136Z,16.13
2022-11-04T13:24:59.674Z,16.13
2022-11-04T13:26:04.174Z,16.11
2022-11-04T13:27:18.257Z,16.10
2022-11-04T13:28:23.811Z,16.08
2022-11-04T13:29:27.477Z,16.04
2022-11-04T13:30:38.070Z,16.03
2022-11-04T13:31:49.323Z,16.00
2022-11-04T13:32:56.155Z,16.00
2022-11-04T13:34:05.976Z,15.97
2022-11-04T13:35:16.705Z,15.97
2022-11-04T13:36:34.225Z,15.95
2022-11-04T13:37:43.254Z,15.95
2022-11-04T13:38:50.688Z,15.95
2022-11-04T13:39:56.054Z,15.95
2022-11-04T13:41:12.844Z,15.94
2022-11-04T13:42:47.796Z,15.91
2022-11-04T13:43:52.733Z,15.86
2022-11-04T13:44:58.359Z,15.83
2022-11-04T13:46:01.742Z,15.79
2022-11-04T13:47:08.246Z,15.78
2022-11-04T13:48:11.813Z,15.76
2022-11-04T13:49:23.805Z,15.74
2022-11-04T13:50:35.574Z,15.70
2022-11-04T13:51:41.944Z,15.66
2022-11-04T13:52:52.795Z,15.62
2022-11-04T13:53:58.126Z,15.59
2022-11-04T13:55:04.006Z,15.57
2022-11-04T13:56:31.601Z,15.56
2022-11-04T13:57:33.501Z,15.52
2022-11-04T13:58:36.342Z,15.49
2022-11-04T13:59:40.643Z,15.48
2022-11-04T14:01:12.188Z,15.44
2022-11-04T14:02:26.878Z,15.37
2022-11-04T14:03:49.943Z,15.32
2022-11-04T14:04:53.793Z,15.28
2022-11-04T14:06:05.163Z,15.25
2022-11-04T14:07:10.915Z,15.23
2022-11-04T14:08:15.724Z,15.19
2022-11-04T14:10:01.148Z,15.18
2022-11-04T14:11:12.858Z,15.12
2022-11-04T14:12:26.553Z,15.11
2022-11-04T14:14:04.185Z,15.05
2022-11-04T14:15:17.302Z,15.02
2022-11-04T14:16:40.985Z,14.99
2022-11-04T14:18:05.932Z,14.95
2022-11-04T14:19:57.978Z,14.90
2022-11-04T14:21:08.717Z,14.83
2022-11-04T14:22:14.871Z,14.82
2022-11-04T14:23:25.194Z,14.82
2022-11-04T14:24:28.616Z,14.80
2022-11-04T14:25:35.515Z,14.81
2022-11-04T14:26:44.059Z,14.80
2022-11-04T14:27:48.694Z,14.77
2022-11-04T14:29:02.785Z,14.75
2022-11-04T14:30:06.626Z,14.73
2022-11-04T14:31:16.977Z,14.71
2022-11-04T14:32:25.525Z,14.67
2022-11-04T14:33:39.486Z,14.65
2022-11-04T14:34:42.936Z,14.63
2022-11-04T14:35:46.764Z,14.61
2022-11-04T14:36:57.228Z,14.59
2022-11-04T14:38:06.106Z,14.57
2022-11-04T14:39:24.375Z,14.55
2022-11-04T14:40:30.384Z,14.50
2022-11-04T14:41:52.525Z,14.46
2022-11-04T14:42:57.713Z,14.40
2022-11-04T14:44:02.481Z,14.34
2022-11-04T14:45:09.863Z,14.28
2022-11-04T14:46:19.696Z,14.23
2022-11-04T14:47:26.928Z,14.19
2022-11-04T14:48:30.566Z,14.15
2022-11-04T14:49:43.776Z,14.12
2022-11-04T14:50:51.001Z,14.11
2022-11-04T14:51:56.522Z,14.08
2022-11-04T14:53:02.466Z,14.09
2022-11-04T14:54:08.184Z,14.08
2022-11-04T14:55:19.701Z,14.06
2022-11-04T14:56:27.226Z,14.05